createdAt,value
2018-05-26T00:01:25.623Z,97847.83
2018-05-26T00:03:56.598Z,97857.64
2018-05-26T00:06:27.596Z,97867.75
2018-05-26T00:08:58.620Z,97859.63
2018-05-26T00:11:29.657Z,97862.95
2018-05-26T00:14:00.671Z,97860.03
2018-05-26T00:16:31.686Z,97861.23
2018-05-26T00:19:02.655Z,97859.41
2018-05-26T00:21:33.661Z,97857.78
2018-05-26T00:24:04.677Z,97857.64
2018-05-26T00:26:35.626Z,97861.36
2018-05-26T00:29:06.670Z,97859.64
2018-05-26T00:31:37.672Z,97857.38
2018-05-26T00:34:08.724Z,97858.45
2018-05-26T00:36:39.734Z,97851.80
2018-05-26T00:39:10.787Z,97846.08
2018-05-26T00:41:41.768Z,97849.31
2018-05-26T00:44:12.768Z,97844.80
2018-05-26T00:46:43.745Z,97851.45
2018-05-26T00:49:14.753Z,97852.25
2018-05-26T00:51:45.763Z,97855.83
2018-05-26T00:54:16.795Z,97859.28
2018-05-26T00:56:47.800Z,97860.48
2018-05-26T00:59:18.823Z,97856.50
2018-05-26T01:01:49.835Z,97860.93
2018-05-26T01:04:20.879Z,97856.81
2018-05-26T01:06:51.899Z,97856.41
2018-05-26T01:09:22.886Z,97854.28
2018-05-26T01:11:53.845Z,97855.89
2018-05-26T01:14:24.887Z,97860.65
2018-05-26T01:16:55.949Z,97860.41
2018-05-26T01:19:26.974Z,97856.02
2018-05-26T01:21:57.958Z,97853.77
2018-05-26T01:24:29.040Z,97861.13
2018-05-26T01:27:00.016Z,97858.07
2018-05-26T01:29:31.016Z,97863.79
2018-05-26T01:32:02.088Z,97861.40
2018-05-26T01:34:33.114Z,97861.00
2018-05-26T01:37:04.178Z,97862.33
2018-05-26T01:39:35.202Z,97865.52
2018-05-26T01:42:06.194Z,97864.86
2018-05-26T01:44:37.188Z,97865.53
2018-05-26T01:47:08.200Z,97866.46
2018-05-26T01:49:39.210Z,97862.11
2018-05-26T01:52:10.239Z,97864.91
2018-05-26T01:54:41.209Z,97864.91
2018-05-26T01:57:12.222Z,97864.24
2018-05-26T01:59:43.217Z,97864.50
2018-05-26T02:02:14.206Z,97863.30
2018-05-26T02:04:45.227Z,97868.63
2018-05-26T02:07:16.209Z,97868.80
2018-05-26T02:09:47.245Z,97874.59
2018-05-26T02:12:18.284Z,97876.74
2018-05-26T02:14:49.282Z,97882.49
2018-05-26T02:17:20.306Z,97873.33
2018-05-26T02:19:51.282Z,97866.02
2018-05-26T02:22:22.298Z,97869.23
2018-05-26T02:24:53.330Z,97869.86
2018-05-26T02:27:24.333Z,97872.06
2018-05-26T02:29:55.299Z,97868.06
2018-05-26T02:32:26.324Z,97868.18
2018-05-26T02:34:57.350Z,97868.28
2018-05-26T02:37:28.352Z,97863.02
2018-05-26T02:39:59.325Z,97869.34
2018-05-26T02:42:30.295Z,97870.38
2018-05-26T02:45:01.278Z,97871.58
2018-05-26T02:47:32.248Z,97867.66
2018-05-26T02:50:03.244Z,97869.99
2018-05-26T02:52:34.235Z,97869.95
2018-05-26T02:55:05.256Z,97865.41
2018-05-26T02:57:36.216Z,97869.06
2018-05-26T03:00:07.224Z,97872.61
2018-05-26T03:02:38.221Z,97879.84
2018-05-26T03:05:15.251Z,97878.99
2018-05-26T03:07:52.565Z,97877.38
2018-05-26T03:10:29.636Z,97882.18
2018-05-26T03:13:06.886Z,97884.55
2018-05-26T03:15:37.909Z,97889.48
2018-05-26T03:18:09.980Z,97896.83
2018-05-26T03:20:40.974Z,97895.23
2018-05-26T03:23:12.026Z,97896.57
2018-05-26T03:25:43.003Z,97900.43
2018-05-26T03:28:14.006Z,97893.81
2018-05-26T03:30:45.026Z,97891.83
2018-05-26T03:33:16.009Z,97904.01
2018-05-26T03:35:47.002Z,97902.49
2018-05-26T03:38:18.002Z,97907.28
2018-05-26T03:40:49.006Z,97900.48
2018-05-26T03:43:19.971Z,97894.36
2018-05-26T03:45:50.991Z,97897.37
2018-05-26T03:48:21.946Z,97902.24
2018-05-26T03:50:52.944Z,97897.18
2018-05-26T03:53:23.940Z,97893.83
2018-05-26T03:56:07.347Z,97894.83
2018-05-26T03:58:50.546Z,97890.51
2018-05-26T04:01:21.566Z,97889.58
2018-05-26T04:03:53.371Z,97893.05
2018-05-26T04:06:24.404Z,97898.48
2018-05-26T04:08:55.411Z,97901.61
2018-05-26T04:11:26.532Z,97901.19
2018-05-26T04:13:57.443Z,97902.35
2018-05-26T04:16:28.452Z,97904.45
2018-05-26T04:18:59.456Z,97913.39
2018-05-26T04:21:30.494Z,97904.58
2018-05-26T04:24:01.503Z,97906.45
2018-05-26T04:26:32.517Z,97906.13
2018-05-26T04:29:03.472Z,97911.25
2018-05-26T04:31:34.489Z,97913.84
2018-05-26T04:34:05.524Z,97916.47
2018-05-26T04:36:36.548Z,97925.05
2018-05-26T04:39:07.612Z,97921.12
2018-05-26T04:41:38.644Z,97925.37
2018-05-26T04:44:09.660Z,97927.02
2018-05-26T04:46:40.673Z,97927.33
2018-05-26T04:49:11.726Z,97927.73
2018-05-26T04:51:42.718Z,97938.15
2018-05-26T04:54:13.738Z,97946.72
2018-05-26T04:56:44.761Z,97949.82
2018-05-26T04:59:16.539Z,97950.47
2018-05-26T05:01:48.242Z,97950.41
2018-05-26T05:04:27.184Z,97949.25
2018-05-26T05:06:58.256Z,97945.07
2018-05-26T05:09:29.639Z,97949.98
2018-05-26T05:12:00.971Z,97944.61
2018-05-26T05:14:32.373Z,97943.14
2018-05-26T05:17:05.524Z,97943.77
2018-05-26T05:19:36.581Z,97942.41
2018-05-26T05:22:07.561Z,97941.89
2018-05-26T05:24:38.597Z,97932.05
2018-05-26T05:27:09.605Z,97938.48
2018-05-26T05:29:40.616Z,97940.84
2018-05-26T05:32:11.638Z,97942.41
2018-05-26T05:34:42.663Z,97944.56
2018-05-26T05:37:13.706Z,97950.66
2018-05-26T05:39:44.688Z,97946.98
2018-05-26T05:42:15.696Z,97951.81
2018-05-26T05:44:46.716Z,97957.87
2018-05-26T05:47:17.731Z,97957.63
2018-05-26T05:49:48.737Z,97969.27
2018-05-26T05:52:19.770Z,97971.38
2018-05-26T05:54:50.796Z,97971.11
2018-05-26T05:57:21.796Z,97967.24
2018-05-26T05:59:52.802Z,97957.98
2018-05-26T06:02:23.845Z,97960.21
2018-05-26T06:04:54.819Z,97965.03
2018-05-26T06:07:25.807Z,97964.14
2018-05-26T06:09:56.841Z,97961.13
2018-05-26T06:12:27.834Z,97962.58
2018-05-26T06:14:58.889Z,97962.16
2018-05-26T06:17:29.923Z,97959.37
2018-05-26T06:20:00.937Z,97967.36
2018-05-26T06:22:32.019Z,97967.67
2018-05-26T06:25:03.052Z,97967.99
2018-05-26T06:27:34.074Z,97961.59
2018-05-26T06:30:05.121Z,97968.39
2018-05-26T06:32:36.150Z,97967.34
2018-05-26T06:35:07.202Z,97956.17
2018-05-26T06:37:38.248Z,97957.81
2018-05-26T06:40:09.270Z,97957.80
2018-05-26T06:42:40.285Z,97958.93
2018-05-26T06:45:11.300Z,97963.28
2018-05-26T06:47:42.334Z,97965.94
2018-05-26T06:50:13.388Z,97961.95
2018-05-26T06:52:44.384Z,97964.04
2018-05-26T06:55:15.379Z,97952.87
2018-05-26T06:57:46.368Z,97952.02
2018-05-26T07:00:17.420Z,97947.34
2018-05-26T07:02:48.376Z,97957.57
2018-05-26T07:05:19.411Z,97955.55
2018-05-26T07:07:57.455Z,97951.00
2018-05-26T07:10:28.470Z,97953.65
2018-05-26T07:12:59.460Z,97955.94
2018-05-26T07:15:30.485Z,97951.67
2018-05-26T07:18:01.499Z,97945.27
2018-05-26T07:20:32.572Z,97951.55
2018-05-26T07:23:03.598Z,97943.25
2018-05-26T07:25:34.562Z,97939.84
2018-05-26T07:28:05.607Z,97948.15
2018-05-26T07:30:36.610Z,97935.06
2018-05-26T07:33:07.610Z,97938.13
2018-05-26T07:35:38.602Z,97926.77
2018-05-26T07:38:09.618Z,97924.81
2018-05-26T07:40:40.598Z,97927.81
2018-05-26T07:43:11.683Z,97914.78
2018-05-26T07:45:42.699Z,97915.66
2018-05-26T07:48:13.783Z,97904.97
2018-05-26T07:50:44.765Z,97912.34
2018-05-26T07:53:15.807Z,97907.51
2018-05-26T07:55:46.809Z,97903.91
2018-05-26T07:58:17.884Z,97901.36
2018-05-26T08:00:48.929Z,97899.45
2018-05-26T08:03:19.957Z,97889.19
2018-05-26T08:05:50.985Z,97892.44
2018-05-26T08:08:22.022Z,97883.61
2018-05-26T08:10:53.059Z,97882.14
2018-05-26T08:13:24.091Z,97879.60
2018-05-26T08:15:55.256Z,97883.67
2018-05-26T08:18:26.271Z,97876.62
2018-05-26T08:20:57.281Z,97883.63
2018-05-26T08:23:28.307Z,97875.56
2018-05-26T08:25:59.357Z,97873.01
2018-05-26T08:28:30.363Z,97874.27
2018-05-26T08:31:01.379Z,97883.25
2018-05-26T08:33:32.410Z,97874.44
2018-05-26T08:36:03.417Z,97877.94
2018-05-26T08:38:34.462Z,97880.44
2018-05-26T08:41:05.459Z,97878.58
2018-05-26T08:43:36.470Z,97878.40
2018-05-26T08:46:07.476Z,97875.11
2018-05-26T08:48:38.495Z,97872.88
2018-05-26T08:51:09.625Z,97868.93
2018-05-26T08:53:40.713Z,97874.05
2018-05-26T08:56:11.913Z,97873.73
2018-05-26T08:58:42.994Z,97875.03
2018-05-26T09:01:14.020Z,97868.59
2018-05-26T09:03:45.060Z,97870.45
2018-05-26T09:06:16.042Z,97871.88
2018-05-26T09:08:47.067Z,97863.28
2018-05-26T09:11:18.128Z,97867.34
2018-05-26T09:13:49.121Z,97862.14
2018-05-26T09:16:20.188Z,97857.98
2018-05-26T09:18:51.173Z,97854.69
2018-05-26T09:21:22.198Z,97855.42
2018-05-26T09:23:53.228Z,97851.52
2018-05-26T09:26:24.240Z,97861.47
2018-05-26T09:28:55.284Z,97854.94
2018-05-26T09:31:26.363Z,97854.76
2018-05-26T09:33:57.377Z,97854.41
2018-05-26T09:36:28.418Z,97842.55
2018-05-26T09:38:59.509Z,97845.19
2018-05-26T09:41:30.596Z,97841.88
2018-05-26T09:44:01.606Z,97841.03
2018-05-26T09:46:32.613Z,97839.04
2018-05-26T09:49:03.633Z,97840.38
2018-05-26T09:51:34.678Z,97835.64
2018-05-26T09:54:05.714Z,97837.08
2018-05-26T09:56:36.703Z,97836.05
2018-05-26T09:59:07.671Z,97842.91
2018-05-26T10:01:38.692Z,97838.48
2018-05-26T10:04:09.741Z,97835.01
2018-05-26T10:06:40.889Z,97830.17
2018-05-26T10:09:11.964Z,97834.09
2018-05-26T10:11:42.970Z,97825.96
2018-05-26T10:14:14.225Z,97828.17
2018-05-26T10:16:45.240Z,97835.58
2018-05-26T10:19:16.316Z,97825.23
2018-05-26T10:21:47.316Z,97830.48
2018-05-26T10:24:18.351Z,97835.87
2018-05-26T10:26:49.407Z,97831.97
2018-05-26T10:29:20.438Z,97829.72
2018-05-26T10:31:51.477Z,97837.11
2018-05-26T10:34:22.543Z,97842.33
2018-05-26T10:36:53.522Z,97830.42
2018-05-26T10:39:24.547Z,97832.05
2018-05-26T10:41:55.575Z,97831.48
2018-05-26T10:44:26.692Z,97835.56
2018-05-26T10:46:57.759Z,97838.42
2018-05-26T10:49:28.796Z,97845.49
2018-05-26T10:51:59.836Z,97840.30
2018-05-26T10:54:30.843Z,97845.16
2018-05-26T10:57:01.879Z,97844.65
2018-05-26T10:59:32.867Z,97844.14
2018-05-26T11:02:03.905Z,97843.65
2018-05-26T11:04:34.934Z,97847.70
2018-05-26T11:07:05.986Z,97853.74
2018-05-26T11:09:36.972Z,97855.95
2018-05-26T11:12:07.944Z,97863.73
2018-05-26T11:14:39.019Z,97858.99
2018-05-26T11:17:10.130Z,97864.05
2018-05-26T11:19:41.150Z,97855.46
2018-05-26T11:22:12.164Z,97864.66
2018-05-26T11:24:43.286Z,97863.67
2018-05-26T11:27:14.223Z,97859.80
2018-05-26T11:29:45.331Z,97855.89
2018-05-26T11:32:16.344Z,97853.73
2018-05-26T11:34:47.365Z,97858.41
2018-05-26T11:37:18.411Z,97849.56
2018-05-26T11:39:49.372Z,97852.09
2018-05-26T11:42:20.410Z,97851.08
2018-05-26T11:44:51.401Z,97849.84
2018-05-26T11:47:22.435Z,97846.83
2018-05-26T11:49:53.423Z,97848.80
2018-05-26T11:52:24.434Z,97850.22
2018-05-26T11:54:55.440Z,97848.76
2018-05-26T11:57:26.417Z,97849.77
2018-05-26T11:59:57.528Z,97855.21
2018-05-26T12:02:28.524Z,97853.28
2018-05-26T12:04:59.572Z,97854.45
2018-05-26T12:07:30.594Z,97864.34
2018-05-26T12:10:01.704Z,97859.98
2018-05-26T12:12:32.742Z,97852.84
2018-05-26T12:15:03.811Z,97850.78
2018-05-26T12:17:34.794Z,97851.92
2018-05-26T12:20:05.851Z,97853.42
2018-05-26T12:22:36.893Z,97848.34
2018-05-26T12:25:07.983Z,97851.48
2018-05-26T12:27:39.004Z,97852.70
2018-05-26T12:30:10.023Z,97849.25
2018-05-26T12:32:41.027Z,97848.87
2018-05-26T12:35:12.025Z,97845.16
2018-05-26T12:37:43.035Z,97850.63
2018-05-26T12:40:14.060Z,97848.80
2018-05-26T12:42:45.125Z,97840.23
2018-05-26T12:45:16.142Z,97835.33
2018-05-26T12:47:47.122Z,97830.32
2018-05-26T12:50:18.132Z,97828.79
2018-05-26T12:52:49.424Z,97832.77
2018-05-26T12:55:20.484Z,97837.33
2018-05-26T12:57:51.539Z,97834.55
2018-05-26T13:00:22.663Z,97836.28
2018-05-26T13:02:53.721Z,97841.84
2018-05-26T13:05:24.818Z,97838.84
2018-05-26T13:07:55.811Z,97839.05
2018-05-26T13:10:26.892Z,97830.69
2018-05-26T13:12:57.965Z,97830.33
2018-05-26T13:15:28.993Z,97830.91
2018-05-26T13:18:00.051Z,97829.36
2018-05-26T13:20:31.122Z,97831.88
2018-05-26T13:23:02.244Z,97828.36
2018-05-26T13:25:33.268Z,97835.19
2018-05-26T13:28:04.339Z,97830.48
2018-05-26T13:30:35.357Z,97825.37
2018-05-26T13:33:06.364Z,97822.44
2018-05-26T13:35:37.404Z,97830.73
2018-05-26T13:38:08.385Z,97819.81
2018-05-26T13:40:39.480Z,97820.52
2018-05-26T13:43:10.522Z,97819.47
2018-05-26T13:45:41.564Z,97816.84
2018-05-26T13:48:12.680Z,97813.80
2018-05-26T13:50:43.713Z,97812.67
2018-05-26T13:53:14.782Z,97808.27
2018-05-26T13:55:45.779Z,97808.67
2018-05-26T13:58:16.898Z,97797.44
2018-05-26T14:00:47.913Z,97799.17
2018-05-26T14:03:18.916Z,97800.47
2018-05-26T14:05:49.918Z,97795.09
2018-05-26T14:08:21.016Z,97803.31
2018-05-26T14:10:52.003Z,97794.92
2018-05-26T14:13:23.092Z,97789.38
2018-05-26T14:15:54.104Z,97792.14
2018-05-26T14:18:25.125Z,97787.50
2018-05-26T14:20:56.163Z,97788.08
2018-05-26T14:23:27.926Z,97789.20
2018-05-26T14:25:59.073Z,97784.66
2018-05-26T14:28:30.112Z,97785.03
2018-05-26T14:31:01.202Z,97788.28
2018-05-26T14:33:32.295Z,97788.31
2018-05-26T14:36:03.437Z,97777.80
2018-05-26T14:38:34.422Z,97778.67
2018-05-26T14:41:05.508Z,97779.64
2018-05-26T14:43:36.601Z,97771.69
2018-05-26T14:46:07.681Z,97773.23
2018-05-26T14:48:38.730Z,97770.27
2018-05-26T14:51:09.732Z,97771.86
2018-05-26T14:53:40.754Z,97767.17
2018-05-26T14:56:11.766Z,97771.08
2018-05-26T14:58:42.862Z,97775.92
2018-05-26T15:01:13.897Z,97771.73
2018-05-26T15:03:44.966Z,97783.77
2018-05-26T15:06:15.960Z,97781.89
2018-05-26T15:08:46.998Z,97778.39
2018-05-26T15:11:18.235Z,97780.34
2018-05-26T15:13:49.317Z,97785.06
2018-05-26T15:16:20.365Z,97780.38
2018-05-26T15:18:51.377Z,97780.59
2018-05-26T15:21:22.402Z,97779.71
2018-05-26T15:23:53.419Z,97768.50
2018-05-26T15:26:24.472Z,97777.13
2018-05-26T15:28:55.621Z,97773.77
2018-05-26T15:31:26.631Z,97774.35
2018-05-26T15:33:57.712Z,97772.99
2018-05-26T15:36:28.779Z,97775.98
2018-05-26T15:38:59.770Z,97775.77
2018-05-26T15:41:30.832Z,97771.48
2018-05-26T15:44:01.840Z,97773.91
2018-05-26T15:46:32.873Z,97764.54
2018-05-26T15:49:03.954Z,97770.91
2018-05-26T15:51:34.981Z,97769.39
2018-05-26T15:54:06.006Z,97765.38
2018-05-26T15:56:37.032Z,97768.37
2018-05-26T15:59:08.092Z,97765.12
2018-05-26T16:01:39.157Z,97767.33
2018-05-26T16:04:10.194Z,97768.50
2018-05-26T16:06:41.226Z,97773.16
2018-05-26T16:09:12.275Z,97771.89
2018-05-26T16:11:43.290Z,97768.55
2018-05-26T16:14:14.332Z,97763.64
2018-05-26T16:16:45.328Z,97767.41
2018-05-26T16:19:16.376Z,97761.83
2018-05-26T16:21:47.408Z,97775.02
2018-05-26T16:24:18.366Z,97771.14
2018-05-26T16:26:49.387Z,97775.23
2018-05-26T16:29:20.365Z,97769.88
2018-05-26T16:31:51.413Z,97774.03
2018-05-26T16:34:22.408Z,97773.82
2018-05-26T16:36:53.431Z,97770.42
2018-05-26T16:39:24.408Z,97775.30
2018-05-26T16:41:55.448Z,97775.66
2018-05-26T16:44:26.429Z,97768.95
2018-05-26T16:46:57.451Z,97766.71
2018-05-26T16:49:28.517Z,97764.07
2018-05-26T16:51:59.523Z,97769.66
2018-05-26T16:54:30.542Z,97761.91
2018-05-26T16:57:01.546Z,97772.27
2018-05-26T16:59:32.594Z,97764.23
2018-05-26T17:02:03.577Z,97758.14
2018-05-26T17:04:34.578Z,97764.45
2018-05-26T17:07:05.581Z,97765.34
2018-05-26T17:09:36.623Z,97757.22
2018-05-26T17:12:07.631Z,97760.27
2018-05-26T17:14:38.827Z,97764.77
2018-05-26T17:17:09.964Z,97762.36
2018-05-26T17:19:41.023Z,97768.37
2018-05-26T17:22:12.035Z,97765.81
2018-05-26T17:24:43.149Z,97769.37
2018-05-26T17:27:14.160Z,97765.61
2018-05-26T17:29:45.185Z,97765.92
2018-05-26T17:32:16.239Z,97769.25
2018-05-26T17:34:47.284Z,97763.98
2018-05-26T17:37:18.335Z,97760.75
2018-05-26T17:39:49.331Z,97758.99
2018-05-26T17:42:20.377Z,97763.33
2018-05-26T17:44:51.416Z,97760.98
2018-05-26T17:47:22.446Z,97759.22
2018-05-26T17:49:53.498Z,97766.56
2018-05-26T17:52:24.591Z,97764.31
2018-05-26T17:54:55.629Z,97764.81
2018-05-26T17:57:26.659Z,97763.45
2018-05-26T17:59:57.638Z,97772.59
2018-05-26T18:02:28.626Z,97774.23
2018-05-26T18:04:59.654Z,97771.02
2018-05-26T18:07:30.754Z,97775.58
2018-05-26T18:10:01.784Z,97778.33
2018-05-26T18:12:32.791Z,97780.61
2018-05-26T18:15:03.834Z,97785.47
2018-05-26T18:17:35.004Z,97790.06
2018-05-26T18:20:06.084Z,97791.27
2018-05-26T18:22:37.082Z,97785.34
2018-05-26T18:25:08.144Z,97782.52
2018-05-26T18:27:39.146Z,97787.41
2018-05-26T18:30:10.307Z,97793.66
2018-05-26T18:32:41.348Z,97791.13
2018-05-26T18:35:12.413Z,97804.39
2018-05-26T18:37:43.409Z,97799.73
2018-05-26T18:40:14.400Z,97802.31
2018-05-26T18:42:45.433Z,97797.72
2018-05-26T18:45:16.415Z,97804.14
2018-05-26T18:47:47.443Z,97809.92
2018-05-26T18:50:18.430Z,97819.53
2018-05-26T18:52:49.464Z,97824.13
2018-05-26T18:55:20.472Z,97821.00
2018-05-26T18:57:51.485Z,97820.08
2018-05-26T19:00:22.515Z,97822.20
2018-05-26T19:02:53.555Z,97825.73
2018-05-26T19:05:24.561Z,97832.55
2018-05-26T19:07:55.532Z,97843.02
2018-05-26T19:10:26.553Z,97844.46
2018-05-26T19:12:57.594Z,97854.35
2018-05-26T19:15:28.752Z,97850.74
2018-05-26T19:17:59.803Z,97859.35
2018-05-26T19:20:30.840Z,97854.89
2018-05-26T19:23:01.827Z,97853.28
2018-05-26T19:25:32.876Z,97861.64
2018-05-26T19:28:03.854Z,97858.20
2018-05-26T19:30:34.902Z,97864.11
2018-05-26T19:33:05.839Z,97859.87
2018-05-26T19:35:36.928Z,97860.00
2018-05-26T19:38:07.922Z,97863.59
2018-05-26T19:40:38.965Z,97860.44
2018-05-26T19:43:09.961Z,97860.45
2018-05-26T19:45:41.000Z,97862.61
2018-05-26T19:48:12.040Z,97871.98
2018-05-26T19:50:44.035Z,97871.55
2018-05-26T19:53:15.024Z,97884.15
2018-05-26T19:55:46.029Z,97880.86
2018-05-26T19:58:17.056Z,97878.67
2018-05-26T20:00:48.085Z,97880.75
2018-05-26T20:03:19.117Z,97884.14
2018-05-26T20:05:50.140Z,97887.52
2018-05-26T20:08:21.158Z,97889.95
2018-05-26T20:10:52.193Z,97889.31
2018-05-26T20:13:23.197Z,97886.09
2018-05-26T20:15:54.257Z,97885.33
2018-05-26T20:18:25.240Z,97889.11
2018-05-26T20:20:56.278Z,97885.72
2018-05-26T20:23:27.324Z,97886.99
2018-05-26T20:25:58.364Z,97893.48
2018-05-26T20:28:29.358Z,97893.50
2018-05-26T20:31:00.370Z,97894.53
2018-05-26T20:33:31.448Z,97902.98
2018-05-26T20:36:02.561Z,97900.68
2018-05-26T20:38:33.534Z,97901.48
2018-05-26T20:41:04.649Z,97899.00
2018-05-26T20:43:35.697Z,97901.21
2018-05-26T20:46:06.738Z,97894.51
2018-05-26T20:48:37.753Z,97895.91
2018-05-26T20:51:08.808Z,97892.99
2018-05-26T20:53:39.844Z,97900.16
2018-05-26T20:56:10.804Z,97906.39
2018-05-26T20:58:41.817Z,97909.53
2018-05-26T21:01:12.845Z,97912.91
2018-05-26T21:03:51.032Z,97908.30
2018-05-26T21:06:22.006Z,97909.01
2018-05-26T21:08:53.037Z,97910.50
2018-05-26T21:11:24.028Z,97903.70
2018-05-26T21:13:55.063Z,97913.17
2018-05-26T21:16:26.059Z,97907.89
2018-05-26T21:18:57.063Z,97905.36
2018-05-26T21:21:28.062Z,97907.64
2018-05-26T21:23:59.080Z,97905.66
2018-05-26T21:26:30.058Z,97902.64
2018-05-26T21:29:01.103Z,97916.28
2018-05-26T21:31:32.076Z,97915.93
2018-05-26T21:34:03.071Z,97915.44
2018-05-26T21:36:34.109Z,97911.66
2018-05-26T21:39:05.145Z,97907.34
2018-05-26T21:41:36.183Z,97910.96
2018-05-26T21:44:07.139Z,97919.23
2018-05-26T21:46:38.135Z,97914.63
2018-05-26T21:49:09.173Z,97921.45
2018-05-26T21:51:40.218Z,97923.68
2018-05-26T21:54:11.247Z,97928.37
2018-05-26T21:56:42.284Z,97933.72
2018-05-26T21:59:13.349Z,97929.98
2018-05-26T22:01:44.389Z,97933.34
2018-05-26T22:04:15.343Z,97935.41
2018-05-26T22:06:46.373Z,97937.91
2018-05-26T22:09:17.403Z,97933.05
2018-05-26T22:11:48.404Z,97931.53
2018-05-26T22:14:19.420Z,97937.06
2018-05-26T22:19:17.578Z,97932.74
2018-05-26T22:21:48.582Z,97934.56
2018-05-26T22:24:19.618Z,97926.26
2018-05-26T22:26:50.609Z,97925.94
2018-05-26T22:29:21.673Z,97927.42
2018-05-26T22:31:52.642Z,97930.53
2018-05-26T22:34:23.638Z,97937.13
2018-05-26T22:36:54.633Z,97931.34
2018-05-26T22:39:25.654Z,97937.28
2018-05-26T22:41:56.635Z,97933.78
2018-05-26T22:44:27.685Z,97939.34
2018-05-26T22:46:58.718Z,97936.90
2018-05-26T22:49:29.764Z,97940.55
2018-05-26T22:52:00.749Z,97937.77
2018-05-26T22:54:31.706Z,97935.25
2018-05-26T22:57:02.735Z,97935.02
2018-05-26T22:59:33.764Z,97940.81
2018-05-26T23:02:04.783Z,97941.60
2018-05-26T23:04:35.834Z,97940.16
2018-05-26T23:07:06.912Z,97935.61
2018-05-26T23:09:37.901Z,97933.98
2018-05-26T23:12:08.894Z,97935.28
2018-05-26T23:14:39.920Z,97929.61
2018-05-26T23:17:10.932Z,97932.61
2018-05-26T23:19:42.000Z,97937.70
2018-05-26T23:22:12.993Z,97943.13
2018-05-26T23:24:44.014Z,97940.56
2018-05-26T23:27:22.074Z,97941.79
2018-05-26T23:29:53.096Z,97942.94
2018-05-26T23:32:24.098Z,97947.78
2018-05-26T23:34:55.120Z,97942.14
2018-05-26T23:37:26.110Z,97936.54
2018-05-26T23:39:57.118Z,97931.34
2018-05-26T23:42:28.152Z,97925.77
2018-05-26T23:44:59.130Z,97924.58
2018-05-26T23:47:30.140Z,97919.78
2018-05-26T23:50:01.200Z,97925.84
2018-05-26T23:52:32.189Z,97926.09
2018-05-26T23:55:03.268Z,97918.03
2018-05-26T23:57:34.235Z,97917.23
